sensor_id;sensor_type;location;lat;lon;timestamp;pressure;altitude;pressure_sealevel;temperature;humidity
6425;BME280;12193;42.642;23.384;2023-04-30T00:00:55;94115.41;;;10.69;100.00
6425;BME280;12193;42.642;23.384;2023-04-30T00:03:24;94114.66;;;10.87;100.00
6425;BME280;12193;42.642;23.384;2023-04-30T00:05:53;94112.25;;;10.92;100.00
6425;BME280;12193;42.642;23.384;2023-04-30T02:58:25;94115.34;;;8.28;100.00
6425;BME280;12193;42.642;23.384;2023-04-30T03:00:55;94118.06;;;8.14;100.00
6425;BME280;12193;42.642;23.384;2023-04-30T03:03:24;94120.66;;;8.14;100.00
6425;BME280;12193;42.642;23.384;2023-04-30T03:05:54;94124.50;;;8.24;100.00
6425;BME280;12193;42.642;23.384;2023-04-30T03:08:25;94128.03;;;8.10;100.00
6425;BME280;12193;42.642;23.384;2023-04-30T03:10:54;94133.81;;;8.12;100.00
6425;BME280;12193;42.642;23.384;2023-04-30T03:13:26;94131.53;;;7.90;100.00
6425;BME280;12193;42.642;23.384;2023-04-30T03:15:56;94125.34;;;7.84;100.00
6425;BME280;12193;42.642;23.384;2023-04-30T03:18:27;94128.38;;;7.94;100.00
6425;BME280;12193;42.642;23.384;2023-04-30T03:20:56;94125.31;;;7.78;100.00
6425;BME280;12193;42.642;23.384;2023-04-30T03:23:27;94131.47;;;7.70;100.00
6425;BME280;12193;42.642;23.384;2023-04-30T03:25:56;94134.22;;;7.69;100.00
6425;BME280;12193;42.642;23.384;2023-04-30T03:28:28;94142.66;;;7.84;100.00
6425;BME280;12193;42.642;23.384;2023-04-30T03:30:57;94133.72;;;7.93;100.00
6425;BME280;12193;42.642;23.384;2023-04-30T03:33:30;94133.97;;;8.04;100.00
6425;BME280;12193;42.642;23.384;2023-04-30T03:35:59;94130.00;;;8.08;100.00
6425;BME280;12193;42.642;23.384;2023-04-30T03:38:29;94132.47;;;8.23;100.00
6425;BME280;12193;42.642;23.384;2023-04-30T03:40:58;94136.28;;;8.39;100.00
6425;BME280;12193;42.642;23.384;2023-04-30T03:43:30;94143.28;;;8.52;100.00
6425;BME280;12193;42.642;23.384;2023-04-30T03:46:00;94146.91;;;8.04;100.00
6425;BME280;12193;42.642;23.384;2023-04-30T03:48:29;94153.06;;;7.97;100.00
6425;BME280;12193;42.642;23.384;2023-04-30T03:50:58;94155.66;;;7.97;100.00
6425;BME280;12193;42.642;23.384;2023-04-30T03:53:28;94158.25;;;8.03;100.00
6425;BME280;12193;42.642;23.384;2023-04-30T03:55:57;94163.81;;;8.00;100.00
6425;BME280;12193;42.642;23.384;2023-04-30T03:58:30;94162.03;;;8.01;100.00
6425;BME280;12193;42.642;23.384;2023-04-30T04:00:59;94165.66;;;8.13;100.00
6425;BME280;12193;42.642;23.384;2023-04-30T04:03:28;94160.84;;;8.10;100.00
6425;BME280;12193;42.642;23.384;2023-04-30T04:05:58;94156.16;;;8.20;100.00
6425;BME280;12193;42.642;23.384;2023-04-30T04:08:27;94148.63;;;8.37;100.00
6425;BME280;12193;42.642;23.384;2023-04-30T04:10:57;94156.47;;;8.63;100.00
6425;BME280;12193;42.642;23.384;2023-04-30T04:13:29;94163.25;;;8.84;100.00
6425;BME280;12193;42.642;23.384;2023-04-30T04:15:59;94162.28;;;9.11;100.00
6425;BME280;12193;42.642;23.384;2023-04-30T04:18:28;94162.25;;;9.30;100.00
6425;BME280;12193;42.642;23.384;2023-04-30T04:20:58;94163.63;;;9.45;100.00
6425;BME280;12193;42.642;23.384;2023-04-30T04:23:27;94162.03;;;9.57;100.00
6425;BME280;12193;42.642;23.384;2023-04-30T04:25:56;94167.44;;;9.36;100.00
6425;BME280;12193;42.642;23.384;2023-04-30T04:28:29;94170.38;;;9.59;100.00
6425;BME280;12193;42.642;23.384;2023-04-30T04:30:58;94167.34;;;9.82;98.47
6425;BME280;12193;42.642;23.384;2023-04-30T04:33:29;94175.31;;;9.93;97.75
6425;BME280;12193;42.642;23.384;2023-04-30T04:35:59;94173.91;;;9.91;98.24
6425;BME280;12193;42.642;23.384;2023-04-30T04:38:28;94175.38;;;9.61;99.27
6425;BME280;12193;42.642;23.384;2023-04-30T04:40:58;94183.78;;;9.56;100.00
6425;BME280;12193;42.642;23.384;2023-04-30T04:43:30;94180.59;;;9.41;100.00
6425;BME280;12193;42.642;23.384;2023-04-30T04:45:59;94186.38;;;9.63;100.00
6425;BME280;12193;42.642;23.384;2023-04-30T04:48:29;94191.94;;;9.66;100.00
6425;BME280;12193;42.642;23.384;2023-04-30T04:50:58;94188.34;;;9.67;100.00
6425;BME280;12193;42.642;23.384;2023-04-30T04:53:28;94191.25;;;9.97;99.60
6425;BME280;12193;42.642;23.384;2023-04-30T04:55:57;94200.72;;;9.78;100.00
6425;BME280;12193;42.642;23.384;2023-04-30T04:58:29;94194.06;;;10.08;99.70
6425;BME280;12193;42.642;23.384;2023-04-30T05:00:59;94190.84;;;10.13;98.95
6425;BME280;12193;42.642;23.384;2023-04-30T05:03:31;94189.66;;;9.96;99.35
6425;BME280;12193;42.642;23.384;2023-04-30T05:06:02;94199.03;;;10.10;99.36
6425;BME280;12193;42.642;23.384;2023-04-30T05:08:31;94198.22;;;10.16;99.14
6425;BME280;12193;42.642;23.384;2023-04-30T05:11:01;94199.47;;;9.87;100.00
6425;BME280;12193;42.642;23.384;2023-04-30T05:13:33;94190.06;;;9.93;100.00
6425;BME280;12193;42.642;23.384;2023-04-30T05:16:03;94199.47;;;10.00;100.00
6425;BME280;12193;42.642;23.384;2023-04-30T05:18:33;94183.13;;;10.43;98.65
6425;BME280;12193;42.642;23.384;2023-04-30T05:21:02;94200.75;;;10.79;95.63
6425;BME280;12193;42.642;23.384;2023-04-30T05:23:31;94200.78;;;11.03;93.37
6425;BME280;12193;42.642;23.384;2023-04-30T05:26:01;94196.81;;;10.94;93.63
6425;BME280;12193;42.642;23.384;2023-04-30T05:28:33;94193.75;;;11.04;93.45
6425;BME280;12193;42.642;23.384;2023-04-30T05:31:03;94197.66;;;11.19;93.62
6425;BME280;12193;42.642;23.384;2023-04-30T05:33:32;94192.38;;;11.26;92.91
6425;BME280;12193;42.642;23.384;2023-04-30T05:36:02;94196.94;;;11.37;91.95
6425;BME280;12193;42.642;23.384;2023-04-30T05:38:32;94196.38;;;11.52;91.08
6425;BME280;12193;42.642;23.384;2023-04-30T05:41:01;94197.59;;;11.56;91.89
6425;BME280;12193;42.642;23.384;2023-04-30T05:43:33;94198.56;;;11.31;93.58
6425;BME280;12193;42.642;23.384;2023-04-30T05:46:02;94202.06;;;11.19;95.79
6425;BME280;12193;42.642;23.384;2023-04-30T05:48:32;94200.53;;;10.80;98.13
6425;BME280;12193;42.642;23.384;2023-04-30T05:51:01;94196.53;;;10.78;99.22
6425;BME280;12193;42.642;23.384;2023-04-30T05:53:31;94190.91;;;11.12;98.41
6425;BME280;12193;42.642;23.384;2023-04-30T05:56:01;94198.34;;;11.33;96.72
6425;BME280;12193;42.642;23.384;2023-04-30T05:58:33;94198.81;;;11.47;95.84
6425;BME280;12193;42.642;23.384;2023-04-30T06:01:03;94194.66;;;11.71;94.57
6425;BME280;12193;42.642;23.384;2023-04-30T06:03:35;94205.88;;;11.89;92.40
6425;BME280;12193;42.642;23.384;2023-04-30T06:06:05;94207.72;;;11.64;93.83
6425;BME280;12193;42.642;23.384;2023-04-30T06:08:35;94209.50;;;11.88;93.13
6425;BME280;12193;42.642;23.384;2023-04-30T06:11:07;94206.97;;;12.00;92.65
6425;BME280;12193;42.642;23.384;2023-04-30T06:13:39;94210.97;;;12.02;93.80
6425;BME280;12193;42.642;23.384;2023-04-30T06:16:09;94208.22;;;11.97;94.08
6425;BME280;12193;42.642;23.384;2023-04-30T06:18:38;94201.13;;;12.22;92.17
6425;BME280;12193;42.642;23.384;2023-04-30T06:21:07;94205.88;;;12.25;91.80
6425;BME280;12193;42.642;23.384;2023-04-30T06:23:37;94215.28;;;12.26;90.91
6425;BME280;12193;42.642;23.384;2023-04-30T06:26:06;94211.59;;;12.51;90.84
6425;BME280;12193;42.642;23.384;2023-04-30T06:28:38;94214.66;;;12.48;91.42
6425;BME280;12193;42.642;23.384;2023-04-30T06:31:08;94207.19;;;12.52;90.41
6425;BME280;12193;42.642;23.384;2023-04-30T06:33:37;94209.09;;;12.74;89.88
6425;BME280;12193;42.642;23.384;2023-04-30T06:36:06;94214.53;;;12.73;89.58
6425;BME280;12193;42.642;23.384;2023-04-30T06:38:35;94213.69;;;12.61;88.98
6425;BME280;12193;42.642;23.384;2023-04-30T06:41:05;94203.31;;;12.90;88.21
6425;BME280;12193;42.642;23.384;2023-04-30T06:43:34;94214.72;;;12.89;87.04
6425;BME280;12193;42.642;23.384;2023-04-30T06:46:06;94214.47;;;13.09;86.60
6425;BME280;12193;42.642;23.384;2023-04-30T06:48:36;94221.44;;;13.26;87.10
6425;BME280;12193;42.642;23.384;2023-04-30T06:51:05;94220.38;;;13.56;84.39
6425;BME280;12193;42.642;23.384;2023-04-30T06:53:34;94225.38;;;14.04;82.56
6425;BME280;12193;42.642;23.384;2023-04-30T06:56:04;94219.47;;;13.97;82.17
6425;BME280;12193;42.642;23.384;2023-04-30T06:58:34;94220.72;;;14.06;81.17
6425;BME280;12193;42.642;23.384;2023-04-30T07:01:06;94217.22;;;14.35;81.43
6425;BME280;12193;42.642;23.384;2023-04-30T07:03:35;94220.00;;;14.56;79.27
6425;BME280;12193;42.642;23.384;2023-04-30T07:06:05;94223.31;;;14.79;77.17
6425;BME280;12193;42.642;23.384;2023-04-30T07:08:34;94217.94;;;14.97;77.95
6425;BME280;12193;42.642;23.384;2023-04-30T07:11:06;94216.25;;;14.91;77.04
6425;BME280;12193;42.642;23.384;2023-04-30T07:13:36;94219.59;;;15.03;77.90
6425;BME280;12193;42.642;23.384;2023-04-30T07:16:09;94218.91;;;15.08;76.03
6425;BME280;12193;42.642;23.384;2023-04-30T07:18:39;94216.81;;;14.93;78.09
6425;BME280;12193;42.642;23.384;2023-04-30T07:21:08;94223.88;;;14.81;76.83
6425;BME280;12193;42.642;23.384;2023-04-30T07:23:38;94218.97;;;14.96;76.10
6425;BME280;12193;42.642;23.384;2023-04-30T07:26:08;94216.09;;;14.98;76.09
6425;BME280;12193;42.642;23.384;2023-04-30T07:28:37;94217.97;;;15.14;75.62
6425;BME280;12193;42.642;23.384;2023-04-30T07:31:09;94225.03;;;15.13;77.20
6425;BME280;12193;42.642;23.384;2023-04-30T07:33:39;94229.56;;;15.18;76.30
6425;BME280;12193;42.642;23.384;2023-04-30T07:36:08;94227.38;;;15.26;76.18
6425;BME280;12193;42.642;23.384;2023-04-30T07:38:37;94222.56;;;15.23;76.68
6425;BME280;12193;42.642;23.384;2023-04-30T07:41:07;94224.16;;;15.08;75.94
6425;BME280;12193;42.642;23.384;2023-04-30T07:43:37;94223.94;;;14.98;76.83
6425;BME280;12193;42.642;23.384;2023-04-30T07:46:09;94224.28;;;15.01;77.44
6425;BME280;12193;42.642;23.384;2023-04-30T07:48:39;94226.25;;;14.94;78.48
6425;BME280;12193;42.642;23.384;2023-04-30T07:51:08;94230.28;;;14.74;77.69
6425;BME280;12193;42.642;23.384;2023-04-30T07:53:37;94237.81;;;14.70;78.19
6425;BME280;12193;42.642;23.384;2023-04-30T07:56:07;94231.59;;;14.49;80.20
6425;BME280;12193;42.642;23.384;2023-04-30T07:58:36;94222.72;;;14.89;78.85
6425;BME280;12193;42.642;23.384;2023-04-30T08:01:06;94229.09;;;15.21;78.63
6425;BME280;12193;42.642;23.384;2023-04-30T08:03:37;94232.75;;;15.48;77.58
6425;BME280;12193;42.642;23.384;2023-04-30T08:06:07;94226.16;;;15.62;73.64
6425;BME280;12193;42.642;23.384;2023-04-30T08:08:36;94237.75;;;16.15;70.92
6425;BME280;12193;42.642;23.384;2023-04-30T08:11:05;94232.56;;;16.36;69.34
6425;BME280;12193;42.642;23.384;2023-04-30T08:13:35;94232.88;;;16.82;66.48
6425;BME280;12193;42.642;23.384;2023-04-30T08:16:04;94227.22;;;17.17;66.02
6425;BME280;12193;42.642;23.384;2023-04-30T08:18:36;94225.09;;;17.35;63.53
6425;BME280;12193;42.642;23.384;2023-04-30T08:21:10;94226.59;;;17.89;62.31
6425;BME280;12193;42.642;23.384;2023-04-30T08:23:39;94233.69;;;18.20;58.05
6425;BME280;12193;42.642;23.384;2023-04-30T08:26:08;94225.00;;;17.83;57.82
6425;BME280;12193;42.642;23.384;2023-04-30T08:28:38;94225.34;;;17.96;56.79
6425;BME280;12193;42.642;23.384;2023-04-30T08:31:07;94228.34;;;19.07;54.05
6425;BME280;12193;42.642;23.384;2023-04-30T08:33:39;94223.09;;;19.02;53.95
6425;BME280;12193;42.642;23.384;2023-04-30T08:36:09;94235.56;;;18.71;57.09
6425;BME280;12193;42.642;23.384;2023-04-30T08:38:38;94236.16;;;18.36;56.59
6425;BME280;12193;42.642;23.384;2023-04-30T08:41:10;94238.41;;;17.55;57.82
6425;BME280;12193;42.642;23.384;2023-04-30T08:43:41;94228.47;;;17.31;59.23
6425;BME280;12193;42.642;23.384;2023-04-30T08:46:11;94222.44;;;17.09;60.54
6425;BME280;12193;42.642;23.384;2023-04-30T08:48:45;94224.72;;;17.00;65.04
6425;BME280;12193;42.642;23.384;2023-04-30T08:51:15;94226.84;;;16.82;65.53
6425;BME280;12193;42.642;23.384;2023-04-30T08:53:44;94222.19;;;16.67;66.56
6425;BME280;12193;42.642;23.384;2023-04-30T08:56:15;94233.94;;;16.81;64.35
6425;BME280;12193;42.642;23.384;2023-04-30T08:58:45;94219.31;;;17.12;65.10
6425;BME280;12193;42.642;23.384;2023-04-30T09:01:14;94218.72;;;17.58;60.84
6425;BME280;12193;42.642;23.384;2023-04-30T09:03:47;94218.81;;;18.04;62.91
6425;BME280;12193;42.642;23.384;2023-04-30T09:06:16;94210.50;;;18.58;57.24
6425;BME280;12193;42.642;23.384;2023-04-30T09:08:47;94211.19;;;18.90;54.37
6425;BME280;12193;42.642;23.384;2023-04-30T09:11:22;94210.25;;;19.16;52.70
6425;BME280;12193;42.642;23.384;2023-04-30T09:13:54;94209.78;;;19.59;51.33
6425;BME280;12193;42.642;23.384;2023-04-30T09:16:24;94200.81;;;20.24;46.82
6425;BME280;12193;42.642;23.384;2023-04-30T09:18:58;94190.66;;;21.78;44.87
6425;BME280;12193;42.642;23.384;2023-04-30T09:21:32;94189.31;;;22.65;42.86
6425;BME280;12193;42.642;23.384;2023-04-30T09:24:03;94182.88;;;22.95;44.27
6425;BME280;12193;42.642;23.384;2023-04-30T09:26:34;94180.72;;;23.38;40.97
6425;BME280;12193;42.642;23.384;2023-04-30T09:29:04;94182.69;;;23.51;38.37
6425;BME280;12193;42.642;23.384;2023-04-30T09:31:36;94173.59;;;22.50;38.56
6425;BME280;12193;42.642;23.384;2023-04-30T09:34:09;94173.31;;;22.75;38.25
6425;BME280;12193;42.642;23.384;2023-04-30T09:36:51;94170.69;;;23.17;38.76
6425;BME280;12193;42.642;23.384;2023-04-30T09:39:21;94165.34;;;22.75;39.10
6425;BME280;12193;42.642;23.384;2023-04-30T09:41:50;94157.34;;;22.80;38.33
6425;BME280;12193;42.642;23.384;2023-04-30T09:44:27;94165.38;;;23.91;37.08
6425;BME280;12193;42.642;23.384;2023-04-30T09:46:56;94161.56;;;23.97;39.30
6425;BME280;12193;42.642;23.384;2023-04-30T09:49:29;94158.59;;;24.43;35.85
6425;BME280;12193;42.642;23.384;2023-04-30T09:52:00;94161.16;;;24.03;35.96
6425;BME280;12193;42.642;23.384;2023-04-30T09:54:30;94159.63;;;23.10;38.62
6425;BME280;12193;42.642;23.384;2023-04-30T09:57:01;94152.31;;;22.79;38.44
6425;BME280;12193;42.642;23.384;2023-04-30T09:59:32;94148.53;;;22.85;38.36
6425;BME280;12193;42.642;23.384;2023-04-30T10:02:04;94152.56;;;21.35;40.28
6425;BME280;12193;42.642;23.384;2023-04-30T10:04:38;94148.91;;;20.78;42.17
6425;BME280;12193;42.642;23.384;2023-04-30T10:07:10;94145.38;;;20.34;44.97
6425;BME280;12193;42.642;23.384;2023-04-30T10:09:45;94140.09;;;20.29;44.94
6425;BME280;12193;42.642;23.384;2023-04-30T10:12:28;94145.16;;;19.26;45.91
6425;BME280;12193;42.642;23.384;2023-04-30T10:15:08;94145.44;;;19.30;46.52
6425;BME280;12193;42.642;23.384;2023-04-30T10:17:40;94135.00;;;20.53;45.18
6425;BME280;12193;42.642;23.384;2023-04-30T10:20:12;94127.59;;;20.55;43.44
6425;BME280;12193;42.642;23.384;2023-04-30T10:22:43;94132.75;;;20.16;44.19
6425;BME280;12193;42.642;23.384;2023-04-30T10:25:12;94125.13;;;20.78;43.82
6425;BME280;12193;42.642;23.384;2023-04-30T10:27:42;94124.22;;;21.02;42.34
6425;BME280;12193;42.642;23.384;2023-04-30T10:30:12;94127.72;;;20.93;41.57
6425;BME280;12193;42.642;23.384;2023-04-30T10:32:47;94137.84;;;20.61;43.98
6425;BME280;12193;42.642;23.384;2023-04-30T10:35:25;94156.50;;;20.11;44.47
6425;BME280;12193;42.642;23.384;2023-04-30T10:38:02;94164.84;;;18.94;47.82
6425;BME280;12193;42.642;23.384;2023-04-30T10:40:34;94178.66;;;18.13;51.53
6425;BME280;12193;42.642;23.384;2023-04-30T10:43:04;94183.13;;;17.45;55.59
6425;BME280;12193;42.642;23.384;2023-04-30T10:45:34;94179.81;;;17.02;59.17
6425;BME280;12193;42.642;23.384;2023-04-30T10:48:05;94188.47;;;16.17;66.82
6425;BME280;12193;42.642;23.384;2023-04-30T10:50:42;94194.31;;;15.69;75.92
6425;BME280;12193;42.642;23.384;2023-04-30T10:53:16;94190.22;;;14.85;80.64
6425;BME280;12193;42.642;23.384;2023-04-30T10:55:53;94181.19;;;14.64;84.03
6425;BME280;12193;42.642;23.384;2023-04-30T10:58:27;94192.09;;;15.78;80.33
6425;BME280;12193;42.642;23.384;2023-04-30T11:01:00;94174.31;;;17.56;77.77
6425;BME280;12193;42.642;23.384;2023-04-30T11:03:29;94178.91;;;18.58;66.94
6425;BME280;12193;42.642;23.384;2023-04-30T11:06:07;94182.59;;;19.88;62.40
6425;BME280;12193;42.642;23.384;2023-04-30T11:08:41;94175.13;;;20.60;53.42
6425;BME280;12193;42.642;23.384;2023-04-30T11:11:16;94172.09;;;20.96;50.68
6425;BME280;12193;42.642;23.384;2023-04-30T11:13:47;94166.44;;;20.44;54.62
6425;BME280;12193;42.642;23.384;2023-04-30T11:16:17;94170.19;;;20.18;51.58
6425;BME280;12193;42.642;23.384;2023-04-30T11:18:47;94166.78;;;19.48;52.43
6425;BME280;12193;42.642;23.384;2023-04-30T11:21:22;94170.22;;;20.03;51.39
6425;BME280;12193;42.642;23.384;2023-04-30T11:24:01;94166.28;;;20.06;51.63
6425;BME280;12193;42.642;23.384;2023-04-30T11:27:03;94165.50;;;19.76;51.53
6425;BME280;12193;42.642;23.384;2023-04-30T11:29:33;94160.44;;;20.09;52.42
6425;BME280;12193;42.642;23.384;2023-04-30T11:32:05;94161.78;;;19.82;53.70
6425;BME280;12193;42.642;23.384;2023-04-30T11:34:34;94163.09;;;19.79;52.03
6425;BME280;12193;42.642;23.384;2023-04-30T11:37:08;94166.53;;;19.94;48.79
6425;BME280;12193;42.642;23.384;2023-04-30T11:39:41;94156.75;;;19.90;49.22
6425;BME280;12193;42.642;23.384;2023-04-30T11:42:15;94156.75;;;20.20;46.78
6425;BME280;12193;42.642;23.384;2023-04-30T11:44:44;94154.91;;;19.16;50.99
6425;BME280;12193;42.642;23.384;2023-04-30T11:47:14;94156.91;;;18.28;54.95
6425;BME280;12193;42.642;23.384;2023-04-30T11:49:43;94156.56;;;17.73;59.02
6425;BME280;12193;42.642;23.384;2023-04-30T11:52:20;94165.50;;;18.13;61.02
6425;BME280;12193;42.642;23.384;2023-04-30T11:54:49;94160.53;;;18.78;57.13
6425;BME280;12193;42.642;23.384;2023-04-30T11:57:18;94158.53;;;19.05;56.43
6425;BME280;12193;42.642;23.384;2023-04-30T11:59:47;94163.13;;;18.63;58.84
6425;BME280;12193;42.642;23.384;2023-04-30T12:02:16;94160.25;;;18.13;61.95
6425;BME280;12193;42.642;23.384;2023-04-30T12:04:46;94166.19;;;17.63;63.32
6425;BME280;12193;42.642;23.384;2023-04-30T12:07:19;94158.22;;;18.25;60.96
6425;BME280;12193;42.642;23.384;2023-04-30T12:09:52;94169.47;;;17.79;64.30
6425;BME280;12193;42.642;23.384;2023-04-30T12:12:27;94161.94;;;18.29;62.47
6425;BME280;12193;42.642;23.384;2023-04-30T12:14:57;94154.88;;;16.35;69.40
6425;BME280;12193;42.642;23.384;2023-04-30T12:17:33;94164.50;;;16.30;73.47
6425;BME280;12193;42.642;23.384;2023-04-30T12:20:07;94164.63;;;16.02;72.89
6425;BME280;12193;42.642;23.384;2023-04-30T12:22:39;94170.72;;;15.86;74.03
6425;BME280;12193;42.642;23.384;2023-04-30T12:25:11;94171.06;;;15.73;73.74
6425;BME280;12193;42.642;23.384;2023-04-30T12:27:45;94181.78;;;15.55;71.82
6425;BME280;12193;42.642;23.384;2023-04-30T12:30:17;94176.91;;;15.80;72.75
6425;BME280;12193;42.642;23.384;2023-04-30T12:32:49;94191.66;;;16.02;71.98
6425;BME280;12193;42.642;23.384;2023-04-30T12:35:20;94189.31;;;15.84;74.97
6425;BME280;12193;42.642;23.384;2023-04-30T12:38:00;94189.47;;;15.62;83.78
6425;BME280;12193;42.642;23.384;2023-04-30T12:40:30;94178.47;;;15.15;93.06
6425;BME280;12193;42.642;23.384;2023-04-30T12:43:01;94178.06;;;14.79;98.78
6425;BME280;12193;42.642;23.384;2023-04-30T12:45:47;94186.41;;;14.64;100.00
6425;BME280;12193;42.642;23.384;2023-04-30T12:48:18;94177.88;;;14.30;100.00
6425;BME280;12193;42.642;23.384;2023-04-30T12:50:51;94180.50;;;14.07;100.00
6425;BME280;12193;42.642;23.384;2023-04-30T12:53:23;94182.53;;;13.93;100.00
6425;BME280;12193;42.642;23.384;2023-04-30T12:56:09;94174.69;;;14.05;100.00
6425;BME280;12193;42.642;23.384;2023-04-30T12:58:41;94174.97;;;14.15;100.00
6425;BME280;12193;42.642;23.384;2023-04-30T13:01:11;94177.22;;;14.62;99.07
6425;BME280;12193;42.642;23.384;2023-04-30T13:03:40;94188.19;;;15.31;94.28
6425;BME280;12193;42.642;23.384;2023-04-30T13:06:10;94181.13;;;15.81;91.55
6425;BME280;12193;42.642;23.384;2023-04-30T13:08:43;94188.13;;;15.59;89.99
6425;BME280;12193;42.642;23.384;2023-04-30T13:11:13;94187.09;;;15.44;94.62
6425;BME280;12193;42.642;23.384;2023-04-30T13:13:42;94177.53;;;15.87;86.57
6425;BME280;12193;42.642;23.384;2023-04-30T13:16:11;94175.19;;;15.85;86.59
6425;BME280;12193;42.642;23.384;2023-04-30T13:18:41;94179.00;;;15.78;77.59
6425;BME280;12193;42.642;23.384;2023-04-30T13:21:11;94163.50;;;15.76;78.48
6425;BME280;12193;42.642;23.384;2023-04-30T13:23:43;94148.94;;;15.20;83.88
6425;BME280;12193;42.642;23.384;2023-04-30T13:26:12;94151.22;;;15.61;82.85
6425;BME280;12193;42.642;23.384;2023-04-30T13:28:42;94133.06;;;16.13;80.98
6425;BME280;12193;42.642;23.384;2023-04-30T13:31:11;94127.13;;;16.39;78.24
6425;BME280;12193;42.642;23.384;2023-04-30T13:33:40;94129.56;;;16.24;75.81
6425;BME280;12193;42.642;23.384;2023-04-30T13:36:10;94122.19;;;16.43;76.01
6425;BME280;12193;42.642;23.384;2023-04-30T13:38:39;94125.34;;;16.23;71.66
6425;BME280;12193;42.642;23.384;2023-04-30T13:41:11;94133.94;;;16.83;68.16
6425;BME280;12193;42.642;23.384;2023-04-30T13:43:40;94127.41;;;17.43;65.93
6425;BME280;12193;42.642;23.384;2023-04-30T13:46:11;94131.25;;;17.62;67.01
6425;BME280;12193;42.642;23.384;2023-04-30T13:48:41;94123.50;;;17.87;64.76
6425;BME280;12193;42.642;23.384;2023-04-30T13:51:13;94126.19;;;17.56;63.54
6425;BME280;12193;42.642;23.384;2023-04-30T13:53:42;94124.38;;;17.30;65.97
6425;BME280;12193;42.642;23.384;2023-04-30T13:56:14;94119.88;;;17.57;66.11
6425;BME280;12193;42.642;23.384;2023-04-30T13:58:44;94116.53;;;17.61;69.23
6425;BME280;12193;42.642;23.384;2023-04-30T14:01:15;94118.47;;;17.44;66.86
6425;BME280;12193;42.642;23.384;2023-04-30T14:03:44;94128.06;;;17.29;69.95
6425;BME280;12193;42.642;23.384;2023-04-30T14:06:13;94124.22;;;17.10;68.96
6425;BME280;12193;42.642;23.384;2023-04-30T14:08:43;94118.81;;;16.68;71.70
6425;BME280;12193;42.642;23.384;2023-04-30T14:11:15;94108.28;;;16.90;68.29
6425;BME280;12193;42.642;23.384;2023-04-30T14:13:44;94111.41;;;17.18;69.76
6425;BME280;12193;42.642;23.384;2023-04-30T14:16:14;94108.16;;;17.06;67.52
6425;BME280;12193;42.642;23.384;2023-04-30T14:18:44;94112.22;;;16.92;66.15
6425;BME280;12193;42.642;23.384;2023-04-30T14:21:13;94110.22;;;17.04;66.91
6425;BME280;12193;42.642;23.384;2023-04-30T14:23:43;94106.88;;;17.09;67.18
6425;BME280;12193;42.642;23.384;2023-04-30T14:26:16;94113.16;;;17.34;65.03
6425;BME280;12193;42.642;23.384;2023-04-30T14:28:46;94108.56;;;17.51;63.30
6425;BME280;12193;42.642;23.384;2023-04-30T14:31:16;94100.78;;;17.71;64.37
6425;BME280;12193;42.642;23.384;2023-04-30T14:33:45;94097.44;;;17.13;66.61
6425;BME280;12193;42.642;23.384;2023-04-30T14:36:15;94095.53;;;17.35;64.87
6425;BME280;12193;42.642;23.384;2023-04-30T14:38:44;94097.44;;;17.39;64.62
6425;BME280;12193;42.642;23.384;2023-04-30T14:41:16;94105.44;;;16.96;67.32
6425;BME280;12193;42.642;23.384;2023-04-30T14:43:46;94101.81;;;16.76;69.83
6425;BME280;12193;42.642;23.384;2023-04-30T14:46:15;94105.88;;;16.62;67.59
6425;BME280;12193;42.642;23.384;2023-04-30T14:48:45;94103.94;;;15.72;81.83
6425;BME280;12193;42.642;23.384;2023-04-30T14:51:14;94115.09;;;15.46;86.68
6425;BME280;12193;42.642;23.384;2023-04-30T14:53:43;94109.84;;;15.63;87.24
6425;BME280;12193;42.642;23.384;2023-04-30T14:56:15;94104.03;;;15.98;86.04
6425;BME280;12193;42.642;23.384;2023-04-30T14:58:45;94103.66;;;16.11;83.97
6425;BME280;12193;42.642;23.384;2023-04-30T15:01:14;94111.72;;;15.83;82.92
6425;BME280;12193;42.642;23.384;2023-04-30T15:03:43;94107.13;;;15.74;82.72
6425;BME280;12193;42.642;23.384;2023-04-30T15:06:13;94105.38;;;16.01;80.92
6425;BME280;12193;42.642;23.384;2023-04-30T15:08:42;94101.47;;;16.25;77.51
6425;BME280;12193;42.642;23.384;2023-04-30T15:11:12;94099.13;;;16.23;77.12
6425;BME280;12193;42.642;23.384;2023-04-30T15:13:45;94103.81;;;16.21;77.33
6425;BME280;12193;42.642;23.384;2023-04-30T15:16:15;94104.00;;;16.15;77.17
6425;BME280;12193;42.642;23.384;2023-04-30T15:18:45;94114.94;;;16.50;75.93
6425;BME280;12193;42.642;23.384;2023-04-30T15:21:14;94111.63;;;16.59;74.56
6425;BME280;12193;42.642;23.384;2023-04-30T15:23:43;94116.09;;;16.59;74.96
6425;BME280;12193;42.642;23.384;2023-04-30T15:26:13;94119.81;;;16.20;77.75
6425;BME280;12193;42.642;23.384;2023-04-30T15:28:45;94114.59;;;16.03;77.88
6425;BME280;12193;42.642;23.384;2023-04-30T15:31:14;94118.06;;;16.09;77.71
6425;BME280;12193;42.642;23.384;2023-04-30T15:33:43;94113.94;;;16.13;77.15
6425;BME280;12193;42.642;23.384;2023-04-30T15:36:13;94116.31;;;16.14;76.54
6425;BME280;12193;42.642;23.384;2023-04-30T15:38:42;94114.47;;;16.15;76.54
6425;BME280;12193;42.642;23.384;2023-04-30T15:41:11;94119.84;;;16.25;75.68
6425;BME280;12193;42.642;23.384;2023-04-30T15:43:40;94117.78;;;16.27;76.08
6425;BME280;12193;42.642;23.384;2023-04-30T15:46:13;94109.34;;;16.25;76.42
6425;BME280;12193;42.642;23.384;2023-04-30T15:48:42;94115.03;;;16.17;76.49
6425;BME280;12193;42.642;23.384;2023-04-30T15:51:11;94109.31;;;16.20;75.98
6425;BME280;12193;42.642;23.384;2023-04-30T15:53:41;94110.56;;;16.34;76.47
6425;BME280;12193;42.642;23.384;2023-04-30T15:56:10;94107.13;;;16.55;76.17
6425;BME280;12193;42.642;23.384;2023-04-30T15:58:40;94111.88;;;16.58;74.30
6425;BME280;12193;42.642;23.384;2023-04-30T16:01:11;94104.22;;;16.56;74.13
6425;BME280;12193;42.642;23.384;2023-04-30T16:03:41;94111.28;;;16.77;72.38
6425;BME280;12193;42.642;23.384;2023-04-30T16:06:11;94106.09;;;16.82;70.54
6425;BME280;12193;42.642;23.384;2023-04-30T16:08:40;94108.41;;;17.05;70.59